sensor_id;sensor_type;location;lat;lon;timestamp;P1;P2;P0
54021;PMS7003;39936;51.058;17.220;2024-03-02T00:00:56;12;12;12
54021;PMS7003;39936;51.058;17.220;2024-03-02T00:04:18;11;10;9
54021;PMS7003;39936;51.058;17.220;2024-03-02T00:07:43;26;25;21
54021;PMS7003;39936;51.058;17.220;2024-03-02T00:11:08;60;52;41
54021;PMS7003;39936;51.058;17.220;2024-03-02T00:14:32;33;31;28
54021;PMS7003;39936;51.058;17.220;2024-03-02T00:17:56;25;25;24
54021;PMS7003;39936;51.058;17.220;2024-03-02T00:21:24;20;20;20
54021;PMS7003;39936;51.058;17.220;2024-03-02T00:24:51;18;18;17
54021;PMS7003;39936;51.058;17.220;2024-03-02T00:31:47;14;13;11
54021;PMS7003;39936;51.058;17.220;2024-03-02T00:35:08;19;19;17
54021;PMS7003;39936;51.058;17.220;2024-03-02T00:38:31;22;22;20
54021;PMS7003;39936;51.058;17.220;2024-03-02T00:41:56;16;16;15
54021;PMS7003;39936;51.058;17.220;2024-03-02T00:45:21;18;16;13
54021;PMS7003;39936;51.058;17.220;2024-03-02T00:48:47;11;11;11
54021;PMS7003;39936;51.058;17.220;2024-03-02T00:52:13;19;18;18
54021;PMS7003;39936;51.058;17.220;2024-03-02T00:55:39;14;14;13
54021;PMS7003;39936;51.058;17.220;2024-03-02T00:59:10;23;23;22
54021;PMS7003;39936;51.058;17.220;2024-03-02T01:02:27;28;28;25
54021;PMS7003;39936;51.058;17.220;2024-03-02T01:05:53;19;19;18
54021;PMS7003;39936;51.058;17.220;2024-03-02T01:09:18;9;9;8
54021;PMS7003;39936;51.058;17.220;2024-03-02T01:12:40;17;17;16
54021;PMS7003;39936;51.058;17.220;2024-03-02T01:16:00;10;10;8
54021;PMS7003;39936;51.058;17.220;2024-03-02T01:19:22;30;28;24
54021;PMS7003;39936;51.058;17.220;2024-03-02T01:22:51;44;41;34
54021;PMS7003;39936;51.058;17.220;2024-03-02T01:26:13;25;24;22
54021;PMS7003;39936;51.058;17.220;2024-03-02T01:29:34;23;23;21
54021;PMS7003;39936;51.058;17.220;2024-03-02T01:32:59;23;19;16
54021;PMS7003;39936;51.058;17.220;2024-03-02T01:36:24;33;32;27
54021;PMS7003;39936;51.058;17.220;2024-03-02T01:39:45;27;26;25
54021;PMS7003;39936;51.058;17.220;2024-03-02T01:43:10;26;26;25
54021;PMS7003;39936;51.058;17.220;2024-03-02T01:46:31;24;23;21
54021;PMS7003;39936;51.058;17.220;2024-03-02T01:50:02;21;21;19
54021;PMS7003;39936;51.058;17.220;2024-03-02T01:53:27;19;17;15
54021;PMS7003;39936;51.058;17.220;2024-03-02T01:56:48;20;19;16
54021;PMS7003;39936;51.058;17.220;2024-03-02T02:00:13;23;23;21
54021;PMS7003;39936;51.058;17.220;2024-03-02T02:03:35;16;15;15
54021;PMS7003;39936;51.058;17.220;2024-03-02T02:06:52;26;26;26
54021;PMS7003;39936;51.058;17.220;2024-03-02T02:10:18;23;22;21
54021;PMS7003;39936;51.058;17.220;2024-03-02T02:13:34;26;25;22
54021;PMS7003;39936;51.058;17.220;2024-03-02T02:17:03;23;23;22
54021;PMS7003;39936;51.058;17.220;2024-03-02T02:20:29;28;28;25
54021;PMS7003;39936;51.058;17.220;2024-03-02T02:23:50;24;24;23
54021;PMS7003;39936;51.058;17.220;2024-03-02T02:27:11;31;31;29
54021;PMS7003;39936;51.058;17.220;2024-03-02T02:30:39;14;14;13
54021;PMS7003;39936;51.058;17.220;2024-03-02T02:34:04;33;33;29
54021;PMS7003;39936;51.058;17.220;2024-03-02T02:37:22;30;30;28
54021;PMS7003;39936;51.058;17.220;2024-03-02T02:40:47;24;24;24
54021;PMS7003;39936;51.058;17.220;2024-03-02T02:44:12;20;20;20
54021;PMS7003;39936;51.058;17.220;2024-03-02T02:47:38;24;24;22
54021;PMS7003;39936;51.058;17.220;2024-03-02T02:50:58;14;14;14
54021;PMS7003;39936;51.058;17.220;2024-03-02T02:54:19;32;32;29
54021;PMS7003;39936;51.058;17.220;2024-03-02T02:57:40;36;35;31
54021;PMS7003;39936;51.058;17.220;2024-03-02T03:01:00;46;42;37
54021;PMS7003;39936;51.058;17.220;2024-03-02T03:04:26;25;24;22
54021;PMS7003;39936;51.058;17.220;2024-03-02T03:07:52;22;21;19
54021;PMS7003;39936;51.058;17.220;2024-03-02T03:11:17;30;30;27
54021;PMS7003;39936;51.058;17.220;2024-03-02T03:14:42;42;39;34
54021;PMS7003;39936;51.058;17.220;2024-03-02T03:18:04;44;41;36
54021;PMS7003;39936;51.058;17.220;2024-03-02T03:21:29;24;24;21
54021;PMS7003;39936;51.058;17.220;2024-03-02T03:24:50;31;29;27
54021;PMS7003;39936;51.058;17.220;2024-03-02T03:28:10;54;47;39
54021;PMS7003;39936;51.058;17.220;2024-03-02T03:31:36;32;31;28
54021;PMS7003;39936;51.058;17.220;2024-03-02T03:35:00;26;26;22
54021;PMS7003;39936;51.058;17.220;2024-03-02T03:38:26;22;22;21
54021;PMS7003;39936;51.058;17.220;2024-03-02T03:41:47;28;27;25
54021;PMS7003;39936;51.058;17.220;2024-03-02T03:45:13;21;21;20
54021;PMS7003;39936;51.058;17.220;2024-03-02T03:48:35;23;22;18
54021;PMS7003;39936;51.058;17.220;2024-03-02T03:52:04;33;33;30
54021;PMS7003;39936;51.058;17.220;2024-03-02T03:55:29;25;24;23
54021;PMS7003;39936;51.058;17.220;2024-03-02T03:58:53;20;20;19
54021;PMS7003;39936;51.058;17.220;2024-03-02T04:02:15;18;18;18
54021;PMS7003;39936;51.058;17.220;2024-03-02T04:05:35;11;11;11
54021;PMS7003;39936;51.058;17.220;2024-03-02T04:09:01;13;13;13
54021;PMS7003;39936;51.058;17.220;2024-03-02T04:12:28;17;17;14
54021;PMS7003;39936;51.058;17.220;2024-03-02T04:15:53;32;31;28
54021;PMS7003;39936;51.058;17.220;2024-03-02T04:19:14;31;29;22
54021;PMS7003;39936;51.058;17.220;2024-03-02T04:22:32;15;15;14
54021;PMS7003;39936;51.058;17.220;2024-03-02T04:25:55;13;13;11
54021;PMS7003;39936;51.058;17.220;2024-03-02T04:29:12;27;25;23
54021;PMS7003;39936;51.058;17.220;2024-03-02T04:32:33;21;21;20
54021;PMS7003;39936;51.058;17.220;2024-03-02T04:35:59;28;26;24
54021;PMS7003;39936;51.058;17.220;2024-03-02T04:39:24;54;48;40
54021;PMS7003;39936;51.058;17.220;2024-03-02T04:42:46;37;37;32
54021;PMS7003;39936;51.058;17.220;2024-03-02T04:46:07;35;34;30
54021;PMS7003;39936;51.058;17.220;2024-03-02T04:49:33;21;21;20
54021;PMS7003;39936;51.058;17.220;2024-03-02T04:52:53;17;17;17
54021;PMS7003;39936;51.058;17.220;2024-03-02T04:56:22;35;33;28
54021;PMS7003;39936;51.058;17.220;2024-03-02T04:59:59;30;30;28
54021;PMS7003;39936;51.058;17.220;2024-03-02T05:03:17;37;36;32
54021;PMS7003;39936;51.058;17.220;2024-03-02T05:06:39;51;46;39
54021;PMS7003;39936;51.058;17.220;2024-03-02T05:10:01;12;12;12
54021;PMS7003;39936;51.058;17.220;2024-03-02T05:13:18;78;70;65
54021;PMS7003;39936;51.058;17.220;2024-03-02T05:16:44;25;24;21
54021;PMS7003;39936;51.058;17.220;2024-03-02T05:20:09;54;52;48
54021;PMS7003;39936;51.058;17.220;2024-03-02T05:23:27;76;71;66
54021;PMS7003;39936;51.058;17.220;2024-03-02T05:26:44;53;48;43
54021;PMS7003;39936;51.058;17.220;2024-03-02T05:30:04;73;64;55
54021;PMS7003;39936;51.058;17.220;2024-03-02T05:33:26;97;88;81
54021;PMS7003;39936;51.058;17.220;2024-03-02T05:36:49;69;65;59
54021;PMS7003;39936;51.058;17.220;2024-03-02T05:40:10;80;78;73
54021;PMS7003;39936;51.058;17.220;2024-03-02T05:43:29;86;81;73
54021;PMS7003;39936;51.058;17.220;2024-03-02T05:46:50;66;58;52
54021;PMS7003;39936;51.058;17.220;2024-03-02T05:50:07;77;67;59
54021;PMS7003;39936;51.058;17.220;2024-03-02T05:53:29;56;50;43
54021;PMS7003;39936;51.058;17.220;2024-03-02T05:56:50;55;49;41
54021;PMS7003;39936;51.058;17.220;2024-03-02T06:00:16;62;56;48
54021;PMS7003;39936;51.058;17.220;2024-03-02T06:03:34;68;68;64
54021;PMS7003;39936;51.058;17.220;2024-03-02T06:07:04;78;76;72
54021;PMS7003;39936;51.058;17.220;2024-03-02T06:10:25;67;60;55
54021;PMS7003;39936;51.058;17.220;2024-03-02T06:13:52;57;50;44
54021;PMS7003;39936;51.058;17.220;2024-03-02T06:17:21;44;41;34
54021;PMS7003;39936;51.058;17.220;2024-03-02T06:20:44;23;23;19
54021;PMS7003;39936;51.058;17.220;2024-03-02T06:24:13;46;41;37
54021;PMS7003;39936;51.058;17.220;2024-03-02T06:27:35;64;56;48
54021;PMS7003;39936;51.058;17.220;2024-03-02T06:30:59;38;36;31
54021;PMS7003;39936;51.058;17.220;2024-03-02T06:34:21;63;55;49
54021;PMS7003;39936;51.058;17.220;2024-03-02T06:37:47;67;60;54
54021;PMS7003;39936;51.058;17.220;2024-03-02T06:41:10;59;53;45
54021;PMS7003;39936;51.058;17.220;2024-03-02T06:44:32;54;48;39
54021;PMS7003;39936;51.058;17.220;2024-03-02T06:47:52;33;32;29
54021;PMS7003;39936;51.058;17.220;2024-03-02T06:51:13;48;44;37
54021;PMS7003;39936;51.058;17.220;2024-03-02T06:54:36;23;22;20
54021;PMS7003;39936;51.058;17.220;2024-03-02T06:57:57;35;33;29
54021;PMS7003;39936;51.058;17.220;2024-03-02T07:01:19;30;28;25
54021;PMS7003;39936;51.058;17.220;2024-03-02T07:04:40;30;28;25
54021;PMS7003;39936;51.058;17.220;2024-03-02T07:08:07;22;21;19
54021;PMS7003;39936;51.058;17.220;2024-03-02T07:11:28;40;37;32
54021;PMS7003;39936;51.058;17.220;2024-03-02T07:14:49;29;29;26
54021;PMS7003;39936;51.058;17.220;2024-03-02T07:18:19;22;22;21
54021;PMS7003;39936;51.058;17.220;2024-03-02T07:21:40;42;38;33
54021;PMS7003;39936;51.058;17.220;2024-03-02T07:25:08;50;43;35
54021;PMS7003;39936;51.058;17.220;2024-03-02T07:28:32;21;21;20
54021;PMS7003;39936;51.058;17.220;2024-03-02T07:32:02;37;36;32
54021;PMS7003;39936;51.058;17.220;2024-03-02T07:35:28;27;25;21
54021;PMS7003;39936;51.058;17.220;2024-03-02T07:38:55;31;28;24
54021;PMS7003;39936;51.058;17.220;2024-03-02T07:42:13;10;9;9
54021;PMS7003;39936;51.058;17.220;2024-03-02T07:45:32;12;12;12
54021;PMS7003;39936;51.058;17.220;2024-03-02T07:48:55;27;27;26
54021;PMS7003;39936;51.058;17.220;2024-03-02T07:52:16;17;17;15
54021;PMS7003;39936;51.058;17.220;2024-03-02T07:55:37;12;12;12
54021;PMS7003;39936;51.058;17.220;2024-03-02T07:59:00;9;9;8
54021;PMS7003;39936;51.058;17.220;2024-03-02T08:02:22;9;9;7
54021;PMS7003;39936;51.058;17.220;2024-03-02T08:05:44;5;5;4
54021;PMS7003;39936;51.058;17.220;2024-03-02T08:09:05;25;25;18
54021;PMS7003;39936;51.058;17.220;2024-03-02T08:12:33;6;6;6
54021;PMS7003;39936;51.058;17.220;2024-03-02T08:15:52;2;2;2
54021;PMS7003;39936;51.058;17.220;2024-03-02T08:19:14;6;6;6
54021;PMS7003;39936;51.058;17.220;2024-03-02T08:22:36;7;7;5
54021;PMS7003;39936;51.058;17.220;2024-03-02T08:25:53;3;3;2
54021;PMS7003;39936;51.058;17.220;2024-03-02T08:29:19;5;5;4
54021;PMS7003;39936;51.058;17.220;2024-03-02T08:32:36;1;1;0
54021;PMS7003;39936;51.058;17.220;2024-03-02T08:35:55;72;66;55
54021;PMS7003;39936;51.058;17.220;2024-03-02T08:39:17;27;26;21
54021;PMS7003;39936;51.058;17.220;2024-03-02T08:42:37;8;8;6
54021;PMS7003;39936;51.058;17.220;2024-03-02T08:46:03;64;62;60
54021;PMS7003;39936;51.058;17.220;2024-03-02T08:49:24;78;72;67
54021;PMS7003;39936;51.058;17.220;2024-03-02T08:52:49;57;53;51
54021;PMS7003;39936;51.058;17.220;2024-03-02T08:56:09;58;51;50
54021;PMS7003;39936;51.058;17.220;2024-03-02T08:59:33;4;4;3
54021;PMS7003;39936;51.058;17.220;2024-03-02T09:03:00;5;5;5
54021;PMS7003;39936;51.058;17.220;2024-03-02T09:06:19;8;8;7
54021;PMS7003;39936;51.058;17.220;2024-03-02T09:09:38;11;10;9
54021;PMS7003;39936;51.058;17.220;2024-03-02T09:12:59;8;8;8
54021;PMS7003;39936;51.058;17.220;2024-03-02T09:16:17;8;8;7
54021;PMS7003;39936;51.058;17.220;2024-03-02T09:19:36;10;10;9
54021;PMS7003;39936;51.058;17.220;2024-03-02T09:22:54;3;3;3
54021;PMS7003;39936;51.058;17.220;2024-03-02T09:26:12;6;6;6
54021;PMS7003;39936;51.058;17.220;2024-03-02T09:29:37;3;3;3
54021;PMS7003;39936;51.058;17.220;2024-03-02T09:33:07;16;14;13
54021;PMS7003;39936;51.058;17.220;2024-03-02T09:36:28;23;21;20
54021;PMS7003;39936;51.058;17.220;2024-03-02T09:39:45;37;37;37
54021;PMS7003;39936;51.058;17.220;2024-03-02T09:43:00;13;13;12
54021;PMS7003;39936;51.058;17.220;2024-03-02T09:46:22;14;14;12
54021;PMS7003;39936;51.058;17.220;2024-03-02T09:49:44;13;13;11
54021;PMS7003;39936;51.058;17.220;2024-03-02T09:53:06;11;9;8
54021;PMS7003;39936;51.058;17.220;2024-03-02T09:56:29;3;3;3
54021;PMS7003;39936;51.058;17.220;2024-03-02T09:59:46;10;10;9
54021;PMS7003;39936;51.058;17.220;2024-03-02T10:03:05;8;7;6
54021;PMS7003;39936;51.058;17.220;2024-03-02T10:06:29;6;6;5
54021;PMS7003;39936;51.058;17.220;2024-03-02T10:09:49;2;2;1
54021;PMS7003;39936;51.058;17.220;2024-03-02T10:13:11;0;0;0
54021;PMS7003;39936;51.058;17.220;2024-03-02T10:16:27;0;0;0
54021;PMS7003;39936;51.058;17.220;2024-03-02T10:19:48;1;1;0
54021;PMS7003;39936;51.058;17.220;2024-03-02T10:23:14;3;3;2
54021;PMS7003;39936;51.058;17.220;2024-03-02T10:26:41;15;14;13
54021;PMS7003;39936;51.058;17.220;2024-03-02T10:29:59;2;2;2
54021;PMS7003;39936;51.058;17.220;2024-03-02T10:33:23;2;2;2
54021;PMS7003;39936;51.058;17.220;2024-03-02T10:36:42;4;4;2
54021;PMS7003;39936;51.058;17.220;2024-03-02T10:40:07;6;6;5
54021;PMS7003;39936;51.058;17.220;2024-03-02T10:43:35;5;5;4
54021;PMS7003;39936;51.058;17.220;2024-03-02T10:47:00;0;0;0
54021;PMS7003;39936;51.058;17.220;2024-03-02T10:50:33;9;8;7
54021;PMS7003;39936;51.058;17.220;2024-03-02T10:53:53;1;1;1
54021;PMS7003;39936;51.058;17.220;2024-03-02T10:57:11;0;0;0
54021;PMS7003;39936;51.058;17.220;2024-03-02T11:00:37;6;6;4
54021;PMS7003;39936;51.058;17.220;2024-03-02T11:03:58;7;7;5
54021;PMS7003;39936;51.058;17.220;2024-03-02T11:07:19;5;5;4
54021;PMS7003;39936;51.058;17.220;2024-03-02T11:14:16;5;5;4
54021;PMS7003;39936;51.058;17.220;2024-03-02T11:17:38;1;1;0
54021;PMS7003;39936;51.058;17.220;2024-03-02T11:20:52;0;0;0
54021;PMS7003;39936;51.058;17.220;2024-03-02T11:31:17;1;1;1
54021;PMS7003;39936;51.058;17.220;2024-03-02T11:34:41;3;3;3
54021;PMS7003;39936;51.058;17.220;2024-03-02T11:38:09;3;3;2
54021;PMS7003;39936;51.058;17.220;2024-03-02T11:41:35;3;3;2
54021;PMS7003;39936;51.058;17.220;2024-03-02T11:44:52;3;3;2
54021;PMS7003;39936;51.058;17.220;2024-03-02T11:48:21;9;8;8
54021;PMS7003;39936;51.058;17.220;2024-03-02T11:51:50;5;5;3
54021;PMS7003;39936;51.058;17.220;2024-03-02T11:55:12;3;3;3
54021;PMS7003;39936;51.058;17.220;2024-03-02T11:58:36;14;12;10
54021;PMS7003;39936;51.058;17.220;2024-03-02T12:01:57;0;0;0
54021;PMS7003;39936;51.058;17.220;2024-03-02T12:05:24;2;2;1
54021;PMS7003;39936;51.058;17.220;2024-03-02T12:08:41;0;0;0
54021;PMS7003;39936;51.058;17.220;2024-03-02T12:12:05;2;2;1
54021;PMS7003;39936;51.058;17.220;2024-03-02T12:15:32;2;2;1
54021;PMS7003;39936;51.058;17.220;2024-03-02T12:18:52;9;8;7
54021;PMS7003;39936;51.058;17.220;2024-03-02T12:22:06;24;17;3
54021;PMS7003;39936;51.058;17.220;2024-03-02T12:25:21;2;2;1
54021;PMS7003;39936;51.058;17.220;2024-03-02T12:28:42;0;0;0
54021;PMS7003;39936;51.058;17.220;2024-03-02T12:31:56;0;0;0
54021;PMS7003;39936;51.058;17.220;2024-03-02T12:35:18;0;0;0
54021;PMS7003;39936;51.058;17.220;2024-03-02T12:38:44;4;4;3
54021;PMS7003;39936;51.058;17.220;2024-03-02T12:42:09;5;5;4
54021;PMS7003;39936;51.058;17.220;2024-03-02T12:45:28;1;0;0
54021;PMS7003;39936;51.058;17.220;2024-03-02T12:48:45;6;6;4
54021;PMS7003;39936;51.058;17.220;2024-03-02T12:52:07;13;13;13
54021;PMS7003;39936;51.058;17.220;2024-03-02T12:55:26;2;2;2
54021;PMS7003;39936;51.058;17.220;2024-03-02T12:58:54;7;7;7
54021;PMS7003;39936;51.058;17.220;2024-03-02T13:02:20;5;5;5
54021;PMS7003;39936;51.058;17.220;2024-03-02T13:05:36;2;0;0
54021;PMS7003;39936;51.058;17.220;2024-03-02T13:08:59;4;4;2
54021;PMS7003;39936;51.058;17.220;2024-03-02T13:12:22;12;12;11
54021;PMS7003;39936;51.058;17.220;2024-03-02T13:15:41;2;1;0
54021;PMS7003;39936;51.058;17.220;2024-03-02T13:18:58;0;0;0
54021;PMS7003;39936;51.058;17.220;2024-03-02T13:22:26;7;7;6
54021;PMS7003;39936;51.058;17.220;2024-03-02T13:25:48;1;1;1
54021;PMS7003;39936;51.058;17.220;2024-03-02T13:29:06;0;0;0
54021;PMS7003;39936;51.058;17.220;2024-03-02T13:32:28;0;0;0
54021;PMS7003;39936;51.058;17.220;2024-03-02T13:35:54;6;5;4
54021;PMS7003;39936;51.058;17.220;2024-03-02T13:39:12;7;7;5
54021;PMS7003;39936;51.058;17.220;2024-03-02T13:42:35;10;10;9
54021;PMS7003;39936;51.058;17.220;2024-03-02T13:46:01;11;10;9
54021;PMS7003;39936;51.058;17.220;2024-03-02T13:49:22;1;1;1
54021;PMS7003;39936;51.058;17.220;2024-03-02T13:52:47;4;4;4
54021;PMS7003;39936;51.058;17.220;2024-03-02T13:56:06;1;1;1
54021;PMS7003;39936;51.058;17.220;2024-03-02T13:59:28;6;6;6
54021;PMS7003;39936;51.058;17.220;2024-03-02T14:02:54;2;2;1
54021;PMS7003;39936;51.058;17.220;2024-03-02T14:06:07;0;0;0
54021;PMS7003;39936;51.058;17.220;2024-03-02T14:09:25;0;0;0
54021;PMS7003;39936;51.058;17.220;2024-03-02T14:12:47;6;6;4
54021;PMS7003;39936;51.058;17.220;2024-03-02T14:16:07;0;0;0
54021;PMS7003;39936;51.058;17.220;2024-03-02T14:19:37;4;4;4
54021;PMS7003;39936;51.058;17.220;2024-03-02T14:23:03;3;3;2
54021;PMS7003;39936;51.058;17.220;2024-03-02T14:26:17;0;0;0
54021;PMS7003;39936;51.058;17.220;2024-03-02T14:29:35;5;5;4
54021;PMS7003;39936;51.058;17.220;2024-03-02T14:32:59;3;3;1
54021;PMS7003;39936;51.058;17.220;2024-03-02T14:36:16;2;1;1
54021;PMS7003;39936;51.058;17.220;2024-03-02T14:39:34;5;5;5
54021;PMS7003;39936;51.058;17.220;2024-03-02T14:42:48;0;0;0
54021;PMS7003;39936;51.058;17.220;2024-03-02T14:46:06;4;4;3
54021;PMS7003;39936;51.058;17.220;2024-03-02T14:49:26;2;2;1
54021;PMS7003;39936;51.058;17.220;2024-03-02T14:52:45;2;2;2
54021;PMS7003;39936;51.058;17.220;2024-03-02T14:56:06;4;4;4
54021;PMS7003;39936;51.058;17.220;2024-03-02T14:59:24;1;1;1
54021;PMS7003;39936;51.058;17.220;2024-03-02T15:02:52;4;4;3
54021;PMS7003;39936;51.058;17.220;2024-03-02T15:06:11;0;0;0
54021;PMS7003;39936;51.058;17.220;2024-03-02T15:09:30;3;3;3
54021;PMS7003;39936;51.058;17.220;2024-03-02T15:12:47;1;1;1
54021;PMS7003;39936;51.058;17.220;2024-03-02T15:16:05;1;1;1
54021;PMS7003;39936;51.058;17.220;2024-03-02T15:19:22;4;4;4
54021;PMS7003;39936;51.058;17.220;2024-03-02T15:22:44;2;2;2
54021;PMS7003;39936;51.058;17.220;2024-03-02T15:25:55;1;1;1
54021;PMS7003;39936;51.058;17.220;2024-03-02T15:29:11;1;1;1
54021;PMS7003;39936;51.058;17.220;2024-03-02T15:32:24;1;1;1
54021;PMS7003;39936;51.058;17.220;2024-03-02T15:35:50;7;7;6
54021;PMS7003;39936;51.058;17.220;2024-03-02T15:39:06;1;1;1
54021;PMS7003;39936;51.058;17.220;2024-03-02T15:42:32;2;2;2
54021;PMS7003;39936;51.058;17.220;2024-03-02T15:45:50;10;8;7
54021;PMS7003;39936;51.058;17.220;2024-03-02T15:49:08;32;32;32
54021;PMS7003;39936;51.058;17.220;2024-03-02T15:52:26;15;14;13
54021;PMS7003;39936;51.058;17.220;2024-03-02T15:55:52;3;3;3
54021;PMS7003;39936;51.058;17.220;2024-03-02T15:59:06;28;28;25
54021;PMS7003;39936;51.058;17.220;2024-03-02T16:02:26;69;66;65
54021;PMS7003;39936;51.058;17.220;2024-03-02T16:05:49;188;186;182
54021;PMS7003;39936;51.058;17.220;2024-03-02T16:09:16;155;152;148
54021;PMS7003;39936;51.058;17.220;2024-03-02T16:12:41;198;195;192
54021;PMS7003;39936;51.058;17.220;2024-03-02T16:16:00;206;205;203
54021;PMS7003;39936;51.058;17.220;2024-03-02T16:19:23;180;178;173
54021;PMS7003;39936;51.058;17.220;2024-03-02T16:22:45;178;176;172
54021;PMS7003;39936;51.058;17.220;2024-03-02T16:26:11;0;0;0
54021;PMS7003;39936;51.058;17.220;2024-03-02T16:29:30;10;9;7
54021;PMS7003;39936;51.058;17.220;2024-03-02T16:32:52;16;14;8
54021;PMS7003;39936;51.058;17.220;2024-03-02T16:36:13;15;14;10
54021;PMS7003;39936;51.058;17.220;2024-03-02T16:39:35;33;31;23
54021;PMS7003;39936;51.058;17.220;2024-03-02T16:42:56;38;37;25
54021;PMS7003;39936;51.058;17.220;2024-03-02T16:46:22;29;29;20
54021;PMS7003;39936;51.058;17.220;2024-03-02T16:49:46;36;36;22
54021;PMS7003;39936;51.058;17.220;2024-03-02T16:53:09;26;25;17
54021;PMS7003;39936;51.058;17.220;2024-03-02T16:56:27;36;36;23
54021;PMS7003;39936;51.058;17.220;2024-03-02T16:59:54;29;28;18
54021;PMS7003;39936;51.058;17.220;2024-03-02T17:03:11;31;31;19
54021;PMS7003;39936;51.058;17.220;2024-03-02T17:06:33;52;46;29
54021;PMS7003;39936;51.058;17.220;2024-03-02T17:09:58;51;48;32
54021;PMS7003;39936;51.058;17.220;2024-03-02T17:13:24;96;91;67
54021;PMS7003;39936;51.058;17.220;2024-03-02T17:16:50;87;78;61
54021;PMS7003;39936;51.058;17.220;2024-03-02T17:20:08;3;3;2
54021;PMS7003;39936;51.058;17.220;2024-03-02T17:23:26;7;7;1
54021;PMS7003;39936;51.058;17.220;2024-03-02T17:26:43;4;4;4
54021;PMS7003;39936;51.058;17.220;2024-03-02T17:29:54;1;0;0
54021;PMS7003;39936;51.058;17.220;2024-03-02T17:33:18;0;0;0
54021;PMS7003;39936;51.058;17.220;2024-03-02T17:36:40;1;1;1
54021;PMS7003;39936;51.058;17.220;2024-03-02T17:40:01;5;5;3
54021;PMS7003;39936;51.058;17.220;2024-03-02T17:43:21;0;0;0
54021;PMS7003;39936;51.058;17.220;2024-03-02T17:46:37;0;0;0
54021;PMS7003;39936;51.058;17.220;2024-03-02T17:49:50;0;0;0
54021;PMS7003;39936;51.058;17.220;2024-03-02T17:53:08;1;1;1
54021;PMS7003;39936;51.058;17.220;2024-03-02T17:56:24;2;1;1
54021;PMS7003;39936;51.058;17.220;2024-03-02T17:59:52;0;0;0
54021;PMS7003;39936;51.058;17.220;2024-03-02T18:03:12;0;0;0
54021;PMS7003;39936;51.058;17.220;2024-03-02T18:06:29;2;2;1
54021;PMS7003;39936;51.058;17.220;2024-03-02T18:09:50;9;8;6
54021;PMS7003;39936;51.058;17.220;2024-03-02T18:13:11;0;0;0
54021;PMS7003;39936;51.058;17.220;2024-03-02T18:16:28;4;4;3
54021;PMS7003;39936;51.058;17.220;2024-03-02T18:19:50;0;0;0
54021;PMS7003;39936;51.058;17.220;2024-03-02T18:23:04;0;0;0
54021;PMS7003;39936;51.058;17.220;2024-03-02T18:26:23;0;0;0
54021;PMS7003;39936;51.058;17.220;2024-03-02T18:29:50;0;0;0
54021;PMS7003;39936;51.058;17.220;2024-03-02T18:33:09;0;0;0
54021;PMS7003;39936;51.058;17.220;2024-03-02T18:36:31;0;0;0
54021;PMS7003;39936;51.058;17.220;2024-03-02T18:39:50;1;1;1
54021;PMS7003;39936;51.058;17.220;2024-03-02T18:43:09;1;1;1
54021;PMS7003;39936;51.058;17.220;2024-03-02T18:46:30;3;3;3
54021;PMS7003;39936;51.058;17.220;2024-03-02T18:49:49;0;0;0
54021;PMS7003;39936;51.058;17.220;2024-03-02T18:53:12;0;0;0
54021;PMS7003;39936;51.058;17.220;2024-03-02T18:56:29;1;1;1
54021;PMS7003;39936;51.058;17.220;2024-03-02T18:59:49;3;3;3
54021;PMS7003;39936;51.058;17.220;2024-03-02T19:03:07;1;1;1
54021;PMS7003;39936;51.058;17.220;2024-03-02T19:06:24;0;0;0
54021;PMS7003;39936;51.058;17.220;2024-03-02T19:09:45;1;1;0
54021;PMS7003;39936;51.058;17.220;2024-03-02T19:13:08;3;3;3
54021;PMS7003;39936;51.058;17.220;2024-03-02T19:16:30;0;0;0
54021;PMS7003;39936;51.058;17.220;2024-03-02T19:19:54;2;2;1
54021;PMS7003;39936;51.058;17.220;2024-03-02T19:23:15;2;1;1
54021;PMS7003;39936;51.058;17.220;2024-03-02T19:26:36;0;0;0
54021;PMS7003;39936;51.058;17.220;2024-03-02T19:29:58;3;1;1
54021;PMS7003;39936;51.058;17.220;2024-03-02T19:33:20;4;4;3
54021;PMS7003;39936;51.058;17.220;2024-03-02T19:36:41;3;3;3
54021;PMS7003;39936;51.058;17.220;2024-03-02T19:40:03;0;0;0
54021;PMS7003;39936;51.058;17.220;2024-03-02T19:43:25;4;4;4
54021;PMS7003;39936;51.058;17.220;2024-03-02T19:46:50;3;3;2
54021;PMS7003;39936;51.058;17.220;2024-03-02T19:50:10;1;1;0
54021;PMS7003;39936;51.058;17.220;2024-03-02T19:53:37;4;4;3
54021;PMS7003;39936;51.058;17.220;2024-03-02T19:56:59;0;0;0
54021;PMS7003;39936;51.058;17.220;2024-03-02T20:00:18;0;0;0
54021;PMS7003;39936;51.058;17.220;2024-03-02T20:03:40;2;1;1
54021;PMS7003;39936;51.058;17.220;2024-03-02T20:07:02;0;0;0
54021;PMS7003;39936;51.058;17.220;2024-03-02T20:10:22;1;1;1
54021;PMS7003;39936;51.058;17.220;2024-03-02T20:13:42;2;2;1
54021;PMS7003;39936;51.058;17.220;2024-03-02T20:17:05;7;7;6
54021;PMS7003;39936;51.058;17.220;2024-03-02T20:20:31;1;1;1
54021;PMS7003;39936;51.058;17.220;2024-03-02T20:23:49;0;0;0
54021;PMS7003;39936;51.058;17.220;2024-03-02T20:27:08;0;0;0
54021;PMS7003;39936;51.058;17.220;2024-03-02T20:30:25;0;0;0
54021;PMS7003;39936;51.058;17.220;2024-03-02T20:33:46;2;2;2
54021;PMS7003;39936;51.058;17.220;2024-03-02T20:37:16;4;4;3
54021;PMS7003;39936;51.058;17.220;2024-03-02T20:40:40;1;1;1
54021;PMS7003;39936;51.058;17.220;2024-03-02T20:44:07;0;0;0
54021;PMS7003;39936;51.058;17.220;2024-03-02T20:47:30;0;0;0
54021;PMS7003;39936;51.058;17.220;2024-03-02T20:50:48;1;1;0
54021;PMS7003;39936;51.058;17.220;2024-03-02T20:54:09;5;3;2
54021;PMS7003;39936;51.058;17.220;2024-03-02T20:57:31;6;6;5
54021;PMS7003;39936;51.058;17.220;2024-03-02T21:00:48;2;2;2
54021;PMS7003;39936;51.058;17.220;2024-03-02T21:04:10;0;0;0
54021;PMS7003;39936;51.058;17.220;2024-03-02T21:07:33;2;2;2
54021;PMS7003;39936;51.058;17.220;2024-03-02T21:11:05;4;4;3
54021;PMS7003;39936;51.058;17.220;2024-03-02T21:14:22;0;0;0
54021;PMS7003;39936;51.058;17.220;2024-03-02T21:17:44;0;0;0
54021;PMS7003;39936;51.058;17.220;2024-03-02T21:21:01;0;0;0
54021;PMS7003;39936;51.058;17.220;2024-03-02T21:24:24;2;2;2
54021;PMS7003;39936;51.058;17.220;2024-03-02T21:27:46;2;2;1
54021;PMS7003;39936;51.058;17.220;2024-03-02T21:31:14;7;7;5
54021;PMS7003;39936;51.058;17.220;2024-03-02T21:34:37;3;3;1
54021;PMS7003;39936;51.058;17.220;2024-03-02T21:37:57;2;2;2
54021;PMS7003;39936;51.058;17.220;2024-03-02T21:41:18;1;1;1
54021;PMS7003;39936;51.058;17.220;2024-03-02T21:44:40;1;1;0
54021;PMS7003;39936;51.058;17.220;2024-03-02T21:47:56;9;7;5
54021;PMS7003;39936;51.058;17.220;2024-03-02T21:51:16;2;2;2
54021;PMS7003;39936;51.058;17.220;2024-03-02T21:54:37;3;1;1
54021;PMS7003;39936;51.058;17.220;2024-03-02T21:57:55;0;0;0
54021;PMS7003;39936;51.058;17.220;2024-03-02T22:01:13;3;3;2